Tiempo atmosférico en la estación meteorológica de Sineu, Illes Balears (120 m.)



Fecha
DESCASC
Temp. máxima en grados centígrados (hora)
DESCASC
Temp. mínima en grados centígrados (hora)
DESCASC
Temp. media en grados centígrados
DESCASC
Racha de viento máxima en m/sg (hora)
DESCASC
Velocidad máxima media en intervalos de 10 minutos(hora)
DESCASC
Precipitaciones diarias en mm
DESCASC
Precipitaciones de 00:00 a 06:00 en mm
DESCASC
Precipitaciones de 06:00 a 12:00 en mm
DESCASC
Precipitaciones de 12:00 a 18:00 en mm
DESCASC
Precipitaciones de 18:00 a 24:00 en mm
DESCASC
25-04-2019 18.1 (11:50) 12.6 (03:50) 15.4 11.11 (14:30) 5.56 (15:50) 0 0 0 0 0
24-04-2019 19.2 (17:00) 10.9 (07:10) 15.1 13.61 (02:20) 6.39 (11:30) 1 1 0 0 0
23-04-2019 21.1 (16:00) 12.5 (06:50) 16.8 11.94 (17:30) 6.39 (16:50) 0.2 0.2 0 0 0
22-04-2019 14.6 (12:20) 12.6 (00:00) 13.6 11.11 (01:20) 7.22 (01:20) 9.2 2.2 4.4 1.8 0.8
21-04-2019 14.9 (15:50) 13 (00:00) 13.9 10.28 (20:40) 6.39 (21:20) 7 0.4 1.4 0.6 4.6
20-04-2019 18 (14:50) 14.7 (00:00) 16.3 17.78 (16:20) 10.28 (14:50) 0 0 0 0 0
19-04-2019 15.9 (16:30) 13.8 (00:00) 14.8 14.72 (15:30) 7.78 (14:10) 0.6 0.2 0.4 0 0
18-04-2019 19.5 (13:10) 10.7 (00:00) 15.1 11.67 (14:50) 6.94 (14:00) 0 0 0 0 0
17-04-2019 19.7 (14:20) 6.6 (00:00) 13.2 8.33 (16:50) 5 (17:10) 0 0 0 0 0
16-04-2019 21.2 (14:40) 8.5 (00:00) 14.9 8.33 (16:30) 5.83 (15:40) 0.4 0 0.4 0 0
15-04-2019 19.5 (14:00) 7.6 (00:00) 13.5 7.78 (15:30) 4.72 (15:30) 0 0 0 0 0
14-04-2019 24.4 (16:40) 10.6 (00:00) 17.5 10.56 (09:20) 5.83 (09:20) 0 0 0 0 0
13-04-2019 20.5 (15:10) 5.8 (00:00) 13.2 8.61 (15:40) 5 (14:30) 0 0 0 0 0
12-04-2019 18.5 (18:40) 9.9 (00:00) 14.2 7.78 (10:00) 4.72 (09:40) 0 0 0 0 0
11-04-2019 19.8 (15:10) 9.5 (00:00) 14.6 8.89 (14:00) 5 (13:10) 0 0 0 0 0
10-04-2019 19 (17:20) 9.4 (00:00) 14.2 9.44 (00:30) 5 (12:20) 3.4 0 3.4 0 0
09-04-2019 18.7 (16:00) 12 (00:00) 15.4 10 (09:10) 6.39 (12:10) 0 0 0 0 0
08-04-2019 19.6 (17:10) 5.4 (00:00) 12.5 11.67 (14:20) 5.83 (14:20) 0 0 0 0 0
07-04-2019 15.5 (17:00) 8.4 (00:00) 11.9 11.67 (16:00) 6.67 (16:30) 0.2 0 0.2 0 0
06-04-2019 15.6 (14:40) 8.4 (00:00) 12 13.06 (18:00) 7.22 (15:50) 3.4 3.4 0 0 0
05-04-2019 17.7 (13:30) 3.3 (00:00) 10.5 9.17 (16:20) 5 (16:20) 0.6 0 0 0 0.6
04-04-2019 17 (18:50) 6.9 (00:00) 12 10.56 (13:00) 6.11 (00:30) 1.4 1.4 0 0 0
03-04-2019 19.5 (13:30) 11.9 (00:00) 15.7 8.61 (17:00) 4.72 (23:40) 0 0 0 0 0
02-04-2019 19.5 (16:40) 5.6 (00:00) 12.5 8.33 (12:30) 5 (12:00) 0 0 0 0 0
01-04-2019 18 (16:10) 9.5 (00:00) 13.8 6.11 (15:10) 3.61 (12:20) 0 0 0 0 0
31-03-2019 16.9 (13:30) 10.3 (00:00) 13.6 7.78 (13:00) 5.28 (13:20) 1.6 0 0 0 1.6
30-03-2019 18.1 (13:20) 6.8 (00:00) 12.5 7.78 (14:10) 5 (14:50) 0 0 0 0 0
29-03-2019 17 (14:00) 2 (00:00) 9.5 8.33 (10:50) 4.72 (17:30) 0 0 0 0 0
28-03-2019 16.4 (13:10) 4.8 (00:00) 10.6 9.72 (12:30) 5.83 (11:00) 0 0 0 0 0
27-03-2019 15.6 (13:20) 3.8 (00:00) 9.7 10.83 (11:00) 6.94 (12:10) 0 0 0 0 0

Gráficas

Temp. máximas Temp. mínimas Temp. medias Precipitaciones Rachas de viento máximas Velocidades máximas media en intervalos de 10 minutos

Datos horarios

Fecha y hora oficial Temperatura (ºC) Velocidad del viento (km/h) Dirección del viento Racha (km/h) Dirección de racha Precipitación (mm) Presión (hPa) Tendencia (hPa) Humedad (%)
2019-04-25 23:00:00 14.5 8 Sudoeste 15 Sur 0 -- -- 83
2019-04-25 22:00:00 14.8 5 Sudoeste 25 Sudoeste 0 -- -- 80
2019-04-25 21:00:00 15.3 14 Sudoeste 31 Sudoeste 0 -- -- 77
2019-04-25 20:00:00 16.2 14 Sudoeste 33 Sudoeste 0 -- -- 71
2019-04-25 19:00:00 16.6 13 Sudoeste 32 Sudoeste 0 -- -- 69
2019-04-25 18:00:00 16.9 11 Sudoeste 33 Sudoeste 0 -- -- 65
2019-04-25 17:00:00 17 15 Sudoeste 36 Sur 0 -- -- 64
2019-04-25 16:00:00 17.7 19 Sudoeste 38 Sudoeste 0 -- -- 62
2019-04-25 15:00:00 17 17 Sudoeste 40 Sur 0 -- -- 64
2019-04-25 14:00:00 17 18 Sudoeste 36 Sudoeste 0 -- -- 65
2019-04-25 13:00:00 17.4 15 Sudoeste 35 Sudoeste 0 -- -- 62
2019-04-25 12:00:00 18 16 Sudoeste 36 Sudoeste 0 -- -- 60
2019-04-25 11:00:00 17.6 14 Sur 37 Sur 0 -- -- 61
2019-04-25 10:00:00 16.7 11 Sur 25 Sur 0 -- -- 67
2019-04-25 09:00:00 15 10 Sur 22 Sur 0 -- -- 73
2019-04-25 08:00:00 13.8 8 Sur 19 Sur 0 -- -- 80
2019-04-25 07:00:00 13.1 7 Sur 16 Sur 0 -- -- 82
2019-04-25 06:00:00 12.8 4 Sur 17 Sudeste 0 -- -- 83
2019-04-25 05:00:00 12.8 6 Sur 17 Sur 0 -- -- 87
2019-04-25 04:00:00 12.6 6 Sur 16 Sur 0 -- -- 84
2019-04-25 03:00:00 13.2 8 Sur 25 Sudeste 0 -- -- 82
2019-04-25 02:00:00 13.2 8 Sur 24 Sudoeste 0 -- -- 84
2019-04-25 01:00:00 13.3 10 Sudoeste 22 Sur 0 -- -- 82
2019-04-25 00:00:00 13.2 5 Sur 21 Sur 0 -- -- 80
2019-04-24 23:00:00 13.9 8 Sur 23 Sur 0 -- -- 77
2019-04-24 22:00:00 13.9 7 Sur 23 Sur 0 -- -- 74
2019-04-24 21:00:00 14.3 8 Sur 24 Sur 0 -- -- 67
2019-04-24 20:00:00 16.7 9 Sur 30 Sudoeste 0 -- -- 53
2019-04-24 19:00:00 18.3 10 Sudoeste 30 Sudoeste 0 -- -- 43
2019-04-24 18:00:00 18.6 16 Sudoeste 37 Sudoeste 0 -- -- 36
2019-04-24 17:00:00 19.2 17 Sudoeste 35 Sudoeste 0 -- -- 33
2019-04-24 16:00:00 18.8 18 Sudoeste 38 Sudoeste 0 -- -- 35
2019-04-24 15:00:00 18.4 20 Sudoeste 39 Sudoeste 0 -- -- 39
2019-04-24 14:00:00 18.4 19 Sudoeste 41 Sudoeste 0 -- -- 38
2019-04-24 13:00:00 17.7 21 Sudoeste 44 Sudoeste 0 -- -- 40
2019-04-24 12:00:00 16.8 22 Sudoeste 41 Sudoeste 0 -- -- 44
2019-04-24 11:00:00 16.2 22 Sudoeste 41 Sudoeste 0 -- -- 47
2019-04-24 10:00:00 15.5 19 Sudoeste 38 Sudoeste 0 -- -- 49
2019-04-24 09:00:00 14.4 17 Sudoeste 31 Sudoeste 0 -- -- 59
2019-04-24 08:00:00 12.2 9 Sudoeste 20 Sudoeste 0 -- -- 70
2019-04-24 07:00:00 11 6 Sur 15 Sur 0 -- -- 76
2019-04-24 06:00:00 11.8 5 Sur 21 Sudoeste 0.2 -- -- 77
2019-04-24 05:00:00 13.7 12 Sudoeste 29 Sudoeste 0.4 -- -- 84
2019-04-24 04:00:00 13.7 12 Sur 41 Sur 0.4 -- -- 81
2019-04-24 03:00:00 14.6 16 Sur 49 Sur 0 -- -- 74
2019-04-24 02:00:00 14.8 16 Sur 41 Sur 0 -- -- 74
2019-04-24 01:00:00 15 14 Sur 38 Sur 0 -- -- 76
2019-04-24 00:00:00 15 14 Sur 30 Sur 0 -- -- 77
2019-04-23 23:00:00 14.8 8 Sur 20 Sur 0 -- -- 80
2019-04-23 22:00:00 15.4 8 Sur 22 Sur 0 -- -- 77
2019-04-23 21:00:00 15.6 10 Sudoeste 33 Sur 0 -- -- 74
2019-04-23 20:00:00 16.4 15 Sudoeste 39 Sudoeste 0 -- -- 69
2019-04-23 19:00:00 17.7 21 Sudoeste 41 Sudoeste 0 -- -- 64
2019-04-23 18:00:00 18.1 20 Sudoeste 43 Sur 0 -- -- 62
2019-04-23 17:00:00 19.9 18 Sudoeste 41 Sudoeste 0 -- -- 56
2019-04-23 16:00:00 21.1 17 Sudoeste 33 Sudoeste 0 -- -- 53
2019-04-23 15:00:00 20.2 15 Sudoeste 29 Sudoeste 0 -- -- 60
2019-04-23 14:00:00 19.7 18 Sudoeste 31 Sudoeste 0 -- -- 69
2019-04-23 13:00:00 19.3 18 Sudoeste 30 Sudoeste 0 -- -- 69
2019-04-23 12:00:00 18.2 14 Sudoeste 25 Sudoeste 0 -- -- 72
2019-04-23 11:00:00 17 9 Sudoeste 26 Sudoeste 0 -- -- 77
2019-04-23 10:00:00 15.8 12 Sudoeste 25 Sudoeste 0 -- -- 81
2019-04-23 09:00:00 14.2 9 Sudoeste 17 Sudoeste 0 -- -- 92
2019-04-23 08:00:00 12.7 8 Sudoeste 19 Sudoeste 0 -- -- 95
2019-04-23 07:00:00 12.5 6 Sudoeste 19 Sudoeste 0 -- -- 95
2019-04-23 06:00:00 12.8 12 Sudoeste 22 Sudoeste 0 -- -- 96
2019-04-23 05:00:00 13.3 13 Sudoeste 26 Oeste 0 -- -- 96
2019-04-23 04:00:00 13.9 9 Oeste 18 Noroeste 0.2 -- -- 99
2019-04-23 03:00:00 13.9 7 Sudoeste 14 Sudoeste 0 -- -- 100
2019-04-23 02:00:00 14 3 Oeste 9 Sudoeste 0 -- -- 100
2019-04-23 01:00:00 14.2 2 Oeste 7 Sudoeste 0 -- -- 100
2019-04-23 00:00:00 14.3 3 Noroeste 10 Noroeste 0 -- -- 100
2019-04-22 23:00:00 14.3 8 Noroeste 18 Noroeste 0.2 -- -- 100
2019-04-22 22:00:00 14.3 10 Noroeste 18 Noroeste 0.2 -- -- 100
2019-04-22 21:00:00 14.2 12 Noroeste 23 Noroeste 0 -- -- 100
2019-04-22 20:00:00 14.1 13 Norte 24 Noroeste 0.2 -- -- 100
2019-04-22 19:00:00 14 11 Norte 27 Noroeste 0.2 -- -- 100
2019-04-22 18:00:00 14.2 15 Norte 26 Norte 0.2 -- -- 100
2019-04-22 17:00:00 14.3 17 Norte 37 Norte 0.6 -- -- 100
2019-04-22 16:00:00 14.3 20 Norte 38 Norte 0.4 -- -- 100
2019-04-22 15:00:00 14.5 19 Norte 36 Norte 0.4 -- -- 100
2019-04-22 14:00:00 14.3 17 Norte 33 Nordeste 0.2 -- -- 100
2019-04-22 13:00:00 14.4 19 Norte 33 Norte 0 -- -- 99
2019-04-22 12:00:00 14.5 19 Nordeste 35 Nordeste 0.8 -- -- 100
2019-04-22 11:00:00 14.2 19 Nordeste 31 Nordeste 1 -- -- 100
2019-04-22 10:00:00 13.9 18 Nordeste 31 Nordeste 0.8 -- -- 99
2019-04-22 09:00:00 13.9 18 Nordeste 38 Nordeste 0.6 -- -- 99
2019-04-22 08:00:00 13.8 18 Nordeste 33 Norte 0.8 -- -- 99
2019-04-22 07:00:00 13.7 20 Nordeste 38 Nordeste 0.4 -- -- 98
2019-04-22 06:00:00 13.7 18 Nordeste 32 Nordeste 0.2 -- -- 98
2019-04-22 05:00:00 13.4 19 Nordeste 39 Nordeste 0.2 -- -- 98
2019-04-22 04:00:00 13.3 23 Nordeste 37 Nordeste 0 -- -- 96
2019-04-22 03:00:00 13.1 22 Nordeste 36 Nordeste 0 -- -- 98
2019-04-22 02:00:00 12.6 20 Nordeste 40 Norte 0.6 -- -- 98
2019-04-22 01:00:00 12.9 16 Nordeste 28 Nordeste 1.2 -- -- 99
2019-04-22 00:00:00 13.3 16 Nordeste 28 Nordeste 2 -- -- 98
2019-04-21 23:00:00 13.1 18 Nordeste 35 Nordeste 0.8 -- -- 97
2019-04-21 22:00:00 13.1 13 Norte 36 Nordeste 0.2 -- -- 98
2019-04-21 21:00:00 13 21 Nordeste 37 Nordeste 0.6 -- -- 97
2019-04-21 20:00:00 13.4 18 Nordeste 36 Nordeste 0.6 -- -- 98
2019-04-21 19:00:00 13.6 20 Nordeste 35 Nordeste 0.4 -- -- 97
2019-04-21 18:00:00 13.9 17 Nordeste 33 Nordeste 0.4 -- -- 97
2019-04-21 17:00:00 14.5 18 Nordeste 32 Nordeste 0 -- -- 94
2019-04-21 16:00:00 14.8 15 Nordeste 33 Nordeste 0 -- -- 93
2019-04-21 15:00:00 14.7 17 Nordeste 29 Nordeste 0 -- -- 96
2019-04-21 14:00:00 14.2 14 Nordeste 24 Nordeste 0.2 -- -- 97
2019-04-21 13:00:00 14.2 16 Nordeste 28 Nordeste 0 -- -- 98
2019-04-21 12:00:00 14 13 Nordeste 24 Nordeste 0.2 -- -- 98
2019-04-21 11:00:00 13.8 13 Nordeste 27 Nordeste 0.4 -- -- 98
2019-04-21 10:00:00 13.5 15 Nordeste 28 Nordeste 0.2 -- -- 97
2019-04-21 09:00:00 13.2 17 Nordeste 30 Nordeste 0.2 -- -- 93
2019-04-21 08:00:00 13.2 14 Nordeste 23 Nordeste 0.2 -- -- 92
2019-04-21 07:00:00 13.1 16 Nordeste 27 Nordeste 0.2 -- -- 92
2019-04-21 06:00:00 13.1 15 Nordeste 26 Nordeste 0 -- -- 89
2019-04-21 05:00:00 13.2 13 Nordeste 24 Nordeste 0.2 -- -- 90
2019-04-21 04:00:00 13.2 13 Nordeste 23 Nordeste 0.2 -- -- 88
2019-04-21 03:00:00 13.3 12 Nordeste 23 Nordeste 0 -- -- 86
2019-04-21 02:00:00 13.8 14 Nordeste 28 Nordeste 0 -- -- 80
2019-04-21 01:00:00 14.2 16 Nordeste 32 Nordeste 0 -- -- 73
2019-04-21 00:00:00 14.7 20 Nordeste 39 Nordeste 0 -- -- 65
2019-04-20 23:00:00 15.4 19 Nordeste 35 Este 0 -- -- 62
2019-04-20 22:00:00 15.5 15 Nordeste 34 Este 0 -- -- 61
2019-04-20 21:00:00 15.1 17 Nordeste 47 Este 0 -- -- 72
2019-04-20 20:00:00 16.5 22 Nordeste 53 Nordeste 0 -- -- 53
2019-04-20 19:00:00 16.7 28 Nordeste 47 Nordeste 0 -- -- 47
2019-04-20 18:00:00 16.8 29 Nordeste 63 Este 0 -- -- 49
2019-04-20 17:00:00 17.5 30 Nordeste 64 Este 0 -- -- 45
2019-04-20 16:00:00 17.5 30 Nordeste 59 Nordeste 0 -- -- 47
2019-04-20 15:00:00 18 30 Nordeste 59 Nordeste 0 -- -- 47
2019-04-20 14:00:00 17.7 32 Nordeste 62 Nordeste 0 -- -- 48
2019-04-20 13:00:00 17.9 33 Nordeste 58 Nordeste 0 -- -- 46
2019-04-20 12:00:00 17 30 Nordeste 55 Nordeste 0 -- -- 47
2019-04-20 11:00:00 16.7 19 Nordeste 42 Nordeste 0 -- -- 52
2019-04-20 10:00:00 16.1 23 Nordeste 43 Nordeste 0 -- -- 52
2019-04-20 09:00:00 15.7 20 Nordeste 40 Nordeste 0 -- -- 52
2019-04-20 08:00:00 15.6 21 Nordeste 41 Nordeste 0 -- -- 51
2019-04-20 07:00:00 15.6 23 Nordeste 46 Este 0 -- -- 52
2019-04-20 06:00:00 15.3 19 Nordeste 37 Nordeste 0 -- -- 54
2019-04-20 05:00:00 15.3 24 Nordeste 39 Nordeste 0 -- -- 58
2019-04-20 04:00:00 15.4 23 Nordeste 39 Nordeste 0 -- -- 58
2019-04-20 03:00:00 15.1 17 Nordeste 32 Norte 0 -- -- 61
2019-04-20 02:00:00 15.3 21 Nordeste 36 Nordeste 0 -- -- 63
2019-04-20 01:00:00 15.6 20 Nordeste 41 Nordeste 0 -- -- 57
2019-04-20 00:00:00 15.8 22 Nordeste 46 Nordeste 0 -- -- 60
2019-04-19 23:00:00 15.7 23 Nordeste 41 Nordeste 0 -- -- 64
2019-04-19 22:00:00 15.7 23 Nordeste 47 Nordeste 0 -- -- 66
2019-04-19 21:00:00 15.6 21 Nordeste 39 Nordeste 0 -- -- 70
2019-04-19 20:00:00 15.6 21 Nordeste 38 Nordeste 0 -- -- 75
2019-04-19 19:00:00 15.6 18 Nordeste 42 Nordeste 0 -- -- 77
2019-04-19 18:00:00 15.7 23 Nordeste 40 Este 0 -- -- 76
2019-04-19 17:00:00 15.8 21 Nordeste 42 Nordeste 0 -- -- 76
2019-04-19 16:00:00 15.8 22 Nordeste 53 Este 0 -- -- 75
2019-04-19 15:00:00 15.7 25 Nordeste 46 Este 0 -- -- 76
2019-04-19 14:00:00 15.5 22 Este 46 Este 0 -- -- 78
2019-04-19 13:00:00 15.3 24 Este 46 Nordeste 0 -- -- 78
2019-04-19 12:00:00 15 15 Nordeste 34 Nordeste 0 -- -- 80
2019-04-19 11:00:00 14.4 16 Nordeste 32 Nordeste 0 -- -- 91
2019-04-19 10:00:00 14.1 18 Nordeste 28 Nordeste 0 -- -- 97
2019-04-19 09:00:00 14 18 Nordeste 27 Nordeste 0 -- -- 98
2019-04-19 08:00:00 13.9 15 Nordeste 26 Nordeste 0.2 -- -- 98
2019-04-19 07:00:00 13.9 14 Nordeste 22 Nordeste 0.2 -- -- 98
2019-04-19 06:00:00 14 12 Nordeste 21 Nordeste 0.2 -- -- 97
2019-04-19 05:00:00 14.1 10 Nordeste 22 Nordeste 0 -- -- 94
2019-04-19 04:00:00 14.5 9 Este 26 Este 0 -- -- 84
2019-04-19 03:00:00 15 12 Este 27 Nordeste 0 -- -- 78
2019-04-19 02:00:00 15.3 14 Este 28 Este 0 -- -- 75
2019-04-19 01:00:00 15.3 17 Nordeste 33 Este 0 -- -- 73
2019-04-19 00:00:00 15.3 12 Este 25 Nordeste 0 -- -- 71
2019-04-18 23:00:00 15.4 14 Este 27 Nordeste 0 -- -- 70
2019-04-18 22:00:00 15.3 15 Nordeste 30 Este 0 -- -- 70
2019-04-18 21:00:00 15.4 12 Este 31 Nordeste 0 -- -- 68
2019-04-18 20:00:00 15.8 16 Este 34 Este 0 -- -- 67
2019-04-18 19:00:00 16.2 22 Nordeste 38 Este 0 -- -- 64
2019-04-18 18:00:00 17.3 21 Este 41 Este 0 -- -- 61
2019-04-18 17:00:00 17.8 23 Nordeste 37 Este 0 -- -- 61
2019-04-18 16:00:00 17.8 21 Este 38 Este 0 -- -- 61
2019-04-18 15:00:00 18.4 21 Este 42 Este 0 -- -- 59
2019-04-18 14:00:00 19.2 25 Este 41 Este 0 -- -- 54
2019-04-18 13:00:00 19 21 Este 36 Este 0 -- -- 55
2019-04-18 12:00:00 18.2 17 Este 33 Este 0 -- -- 59
2019-04-18 11:00:00 17.4 19 Nordeste 31 Nordeste 0 -- -- 64
2019-04-18 10:00:00 15.8 11 Nordeste 38 Nordeste 0 -- -- 73
2019-04-18 09:00:00 14.2 11 Nordeste 19 Nordeste 0 -- -- 81
2019-04-18 08:00:00 12.7 5 Nordeste 14 Nordeste 0 -- -- 83
2019-04-18 07:00:00 12.4 8 Nordeste 26 Norte 0 -- -- 89
2019-04-18 06:00:00 11.6 4 Norte 14 Norte 0 -- -- 90
2019-04-18 05:00:00 11.6 7 Nordeste 15 Nordeste 0 -- -- 91
2019-04-18 04:00:00 11 5 Nordeste 8 Norte 0 -- -- 86
2019-04-18 03:00:00 11.5 0 Calma 8 Norte 0 -- -- 84
2019-04-18 02:00:00 11.6 7 Nordeste 13 Nordeste 0 -- -- 84
2019-04-18 01:00:00 11.8 5 Nordeste 12 Nordeste 0 -- -- 84
2019-04-18 00:00:00 12.1 6 Norte 10 Norte 0 -- -- 84
2019-04-17 23:00:00 12.4 0 Calma 6 Norte 0 -- -- 79
2019-04-17 22:00:00 13.4 4 Nordeste 13 Este 0 -- -- 76
2019-04-17 21:00:00 14.1 7 Este 18 Este 0 -- -- 73
2019-04-17 20:00:00 15.3 9 Este 23 Sudeste 0 -- -- 66
2019-04-17 19:00:00 17 10 Este 27 Sudeste 0 -- -- 60
2019-04-17 18:00:00 17.4 16 Este 28 Este 0 -- -- 57
2019-04-17 17:00:00 18.7 16 Este 30 Este 0 -- -- 52
2019-04-17 16:00:00 19 15 Este 27 Sudeste 0 -- -- 47
2019-04-17 15:00:00 19.5 14 Este 28 Este 0 -- -- 45
2019-04-17 14:00:00 19.4 14 Este 25 Este 0 -- -- 47
2019-04-17 13:00:00 19.1 10 Este 25 Este 0 -- -- 50
2019-04-17 12:00:00 17.9 11 Este 25 Este 0 -- -- 57
2019-04-17 11:00:00 16.9 10 Este 18 Este 0 -- -- 60
2019-04-17 10:00:00 15.7 9 Este 16 Sudeste 0 -- -- 71
2019-04-17 09:00:00 12.4 0 Calma 3 Este 0 -- -- 90
2019-04-17 08:00:00 7.9 0 Calma -- -- 0 -- -- 93
2019-04-17 07:00:00 6.7 0 Calma 2 Sur 0 -- -- 88
2019-04-17 06:00:00 7.1 0 Calma -- -- 0 -- -- 87
2019-04-17 05:00:00 7.6 0 Calma 0 Calma 0 -- -- 86
2019-04-17 04:00:00 8.3 0 Calma 4 Sudeste 0 -- -- 86
2019-04-17 03:00:00 8.8 0 Calma 3 Sudeste 0 -- -- 84
2019-04-17 02:00:00 9.5 0 Calma 3 Sur 0 -- -- 83
2019-04-17 01:00:00 10.6 0 Calma 2 Sudoeste 0 -- -- 82
2019-04-17 00:00:00 11.4 0 Calma 2 Noroeste 0 -- -- 80
2019-04-16 23:00:00 12.2 0 Calma 0 Calma 0 -- -- 79
2019-04-16 22:00:00 12.9 0 Calma 7 Nordeste 0 -- -- 76
2019-04-16 21:00:00 13.6 4 Norte 18 Nordeste 0 -- -- 73
2019-04-16 20:00:00 15.2 12 Nordeste 24 Nordeste 0 -- -- 66
2019-04-16 19:00:00 15.7 16 Nordeste 28 Nordeste 0 -- -- 64
2019-04-16 18:00:00 16.5 16 Nordeste 28 Nordeste 0 -- -- 55
2019-04-16 17:00:00 17.4 19 Nordeste 30 Nordeste 0 -- -- 51
2019-04-16 16:00:00 19.1 19 Nordeste 30 Nordeste 0 -- -- 50
2019-04-16 15:00:00 20.8 14 Este 24 Nordeste 0 -- -- 41
2019-04-16 14:00:00 20.7 12 Nordeste 18 Nordeste 0 -- -- 31
2019-04-16 13:00:00 20 7 Nordeste 20 Nordeste 0 -- -- 41
2019-04-16 12:00:00 18.6 4 Noroeste 12 Noroeste 0 -- -- 44
2019-04-16 11:00:00 17.3 5 Este 14 Sudeste 0 -- -- 53
2019-04-16 10:00:00 15 7 Sudeste 12 Sudeste 0 -- -- 71
2019-04-16 09:00:00 11.8 5 Sur 12 Oeste 0 -- -- 92
2019-04-16 08:00:00 10.9 11 Noroeste 24 Sudeste 0.2 -- -- 92
2019-04-16 07:00:00 11 3 Sur 9 Sudoeste 0.2 -- -- 91
2019-04-16 06:00:00 10.4 4 Sudoeste 9 Sur 0 -- -- 87
2019-04-16 05:00:00 9.5 0 Calma 6 Sudoeste 0 -- -- 81
2019-04-16 04:00:00 9.5 3 Sudoeste 6 Sudoeste 0 -- -- 81
2019-04-16 03:00:00 8.7 2 Oeste 4 Oeste 0 -- -- 79
2019-04-16 02:00:00 9.1 2 Sudoeste 5 Sudoeste 0 -- -- 78
2019-04-16 01:00:00 9.5 0 Calma 3 Sudoeste 0 -- -- 73
2019-04-16 00:00:00 10.8 0 Calma 6 Sudoeste 0 -- -- 68
2019-04-15 23:00:00 12.6 0 Calma 10 Este 0 -- -- 63
2019-04-15 22:00:00 13.7 5 Sudeste 10 Este 0 -- -- 57
2019-04-15 21:00:00 14.3 6 Sudeste 14 Este 0 -- -- 47
2019-04-15 20:00:00 15.7 11 Sudeste 22 Sudeste 0 -- -- 37
2019-04-15 19:00:00 17 10 Sudeste 21 Sudeste 0 -- -- 27
2019-04-15 18:00:00 18 12 Este 26 Este 0 -- -- 27
2019-04-15 17:00:00 18.7 14 Este 25 Sudeste 0 -- -- 26
2019-04-15 16:00:00 18.6 14 Este 28 Este 0 -- -- 27
2019-04-15 15:00:00 19.4 14 Este 26 Este 0 -- -- 27
2019-04-15 14:00:00 19.5 13 Sudeste 26 Este 0 -- -- 28
2019-04-15 13:00:00 18.8 10 Este 23 Sudeste 0 -- -- 32
2019-04-15 12:00:00 18.3 13 Este 24 Este 0 -- -- 35
2019-04-15 11:00:00 17.4 10 Sudeste 19 Este 0 -- -- 41
2019-04-15 10:00:00 16.2 8 Este 14 Este 0 -- -- 49
2019-04-15 09:00:00 13.6 0 Calma 3 Sudoeste 0 -- -- 61
2019-04-15 08:00:00 8.6 0 Calma 4 Sudoeste 0 -- -- 82
2019-04-15 07:00:00 7.7 0 Calma 2 Sudoeste 0 -- -- 83
2019-04-15 06:00:00 8.5 0 Calma 2 Sur 0 -- -- 83
2019-04-15 05:00:00 9.1 0 Calma 2 Sur 0 -- -- 83
2019-04-15 04:00:00 9.8 0 Calma 2 Sudoeste 0 -- -- 83
2019-04-15 03:00:00 10.5 0 Calma 2 Este 0 -- -- 82
2019-04-15 02:00:00 11.5 0 Calma 6 Este 0 -- -- 80
2019-04-15 01:00:00 12.4 6 Este 10 Este 0 -- -- 81
2019-04-15 00:00:00 12.7 0 Calma 7 Sudeste 0 -- -- 73
2019-04-14 23:00:00 13.7 4 Sur 10 Este 0 -- -- 72
2019-04-14 22:00:00 14.8 5 Sudeste 13 Este 0 -- -- 68
2019-04-14 21:00:00 15.1 4 Norte 8 Norte 0 -- -- 63
2019-04-14 20:00:00 16.8 8 Norte 17 Nordeste 0 -- -- 59
2019-04-14 19:00:00 19.5 11 Nordeste 19 Este 0 -- -- 48
2019-04-14 18:00:00 19.9 15 Nordeste 26 Este 0 -- -- 47
2019-04-14 17:00:00 23.2 13 Nordeste 28 Sudoeste 0 -- -- 30
2019-04-14 16:00:00 24.3 11 Oeste 25 Oeste 0 -- -- 19
2019-04-14 15:00:00 23.2 6 Sudoeste 21 Oeste 0 -- -- 22
2019-04-14 14:00:00 23.1 12 Oeste 26 Sudoeste 0 -- -- 21
2019-04-14 13:00:00 22.3 14 Oeste 27 Sudoeste 0 -- -- 32
2019-04-14 12:00:00 20.2 15 Sudoeste 31 Sudoeste 0 -- -- 44
2019-04-14 11:00:00 18.1 15 Sudoeste 32 Sudoeste 0 -- -- 62
2019-04-14 10:00:00 15.9 14 Sudoeste 38 Sudoeste 0 -- -- 78
2019-04-14 09:00:00 14.2 13 Sudoeste 27 Sudoeste 0 -- -- 95
2019-04-14 08:00:00 12.3 7 Sudoeste 18 Sudoeste 0 -- -- 98
2019-04-14 07:00:00 10.8 5 Sur 10 Sur 0 -- -- 96
2019-04-14 06:00:00 11.2 2 Sudeste 12 Sudoeste 0 -- -- 94
2019-04-14 05:00:00 12 7 Sudoeste 20 Oeste 0 -- -- 95
2019-04-14 04:00:00 12.3 6 Sudoeste 20 Sudoeste 0 -- -- 92
2019-04-14 03:00:00 12.7 10 Sudoeste 26 Sudoeste 0 -- -- 91
2019-04-14 02:00:00 12.9 13 Sudoeste 28 Sudoeste 0 -- -- 92
2019-04-14 01:00:00 12.8 8 Sudoeste 21 Sudoeste 0 -- -- 91
2019-04-14 00:00:00 12.8 4 Sur 13 Sur 0 -- -- 89
2019-04-13 23:00:00 13 5 Sudoeste 16 Sudoeste 0 -- -- 85
2019-04-13 22:00:00 13.5 8 Sudoeste 20 Sudoeste 0 -- -- 80
2019-04-13 21:00:00 14.2 12 Sudoeste 26 Sudoeste 0 -- -- 71
2019-04-13 20:00:00 16.3 15 Sudoeste 28 Sudoeste 0 -- -- 51
2019-04-13 19:00:00 18.8 13 Sudoeste 26 Sudoeste 0 -- -- 41
2019-04-13 18:00:00 20 15 Sudoeste 24 Oeste 0 -- -- 33
2019-04-13 17:00:00 20.2 13 Sudoeste 27 Sudoeste 0 -- -- 36
2019-04-13 16:00:00 20.3 13 Sudoeste 31 Sudoeste 0 -- -- 38
2019-04-13 15:00:00 20.4 15 Sudoeste 30 Sudoeste 0 -- -- 37
2019-04-13 14:00:00 20.2 14 Sudoeste 30 Sudoeste 0 -- -- 32
2019-04-13 13:00:00 19.5 12 Sudoeste 23 Sudoeste 0 -- -- 29
2019-04-13 12:00:00 18.5 10 Oeste 19 Sudoeste 0 -- -- 35
2019-04-13 11:00:00 17.8 8 Sur 19 Sudoeste 0 -- -- 35
2019-04-13 10:00:00 15.7 8 Sudoeste 16 Sudoeste 0 -- -- 59
2019-04-13 09:00:00 13.5 8 Sudoeste 14 Sudoeste 0 -- -- 75
2019-04-13 08:00:00 10.3 3 Sudoeste 15 Sudoeste 0 -- -- 87
2019-04-13 07:00:00 6.3 3 Sur 6 Sudeste 0 -- -- 90
2019-04-13 06:00:00 6.4 0 Calma 6 Sur 0 -- -- 84
2019-04-13 05:00:00 7.7 4 Sur 7 Sur 0 -- -- 87
2019-04-13 04:00:00 7.2 0 Calma 3 Sur 0 -- -- 82
2019-04-13 03:00:00 7.9 2 Sudoeste 5 Sudoeste 0 -- -- 83
2019-04-13 02:00:00 7.5 0 Calma 5 Sur 0 -- -- 78
2019-04-13 01:00:00 9.4 4 Sur 8 Sudoeste 0 -- -- 78
2019-04-13 00:00:00 9.9 3 Sur 5 Sur 0 -- -- 73
2019-04-12 23:00:00 11 3 Sudeste 8 Sur 0 -- -- 68
2019-04-12 22:00:00 11.6 5 Sur 7 Sur 0 -- -- 65
2019-04-12 21:00:00 13.5 4 Sur 8 Sudoeste 0 -- -- 57
2019-04-12 20:00:00 16.2 5 Sur 24 Sudoeste 0 -- -- 47
2019-04-12 19:00:00 17.9 12 Sudoeste 24 Sudoeste 0 -- -- 39
2019-04-12 18:00:00 17.7 12 Sudoeste 24 Oeste 0 -- -- 38
2019-04-12 17:00:00 15.7 8 Sudeste 22 Sudeste 0 -- -- 58
2019-04-12 16:00:00 16.1 14 Sudeste 26 Sudeste 0 -- -- 53
2019-04-12 15:00:00 16.5 12 Sur 25 Sudeste 0 -- -- 51
2019-04-12 14:00:00 17.3 10 Sudoeste 22 Sur 0 -- -- 46
2019-04-12 13:00:00 17 3 Sur 13 Nordeste 0 -- -- 43
2019-04-12 12:00:00 16.8 7 Este 23 Nordeste 0 -- -- 45
2019-04-12 11:00:00 16.1 15 Nordeste 25 Norte 0 -- -- 46
2019-04-12 10:00:00 15.2 17 Nordeste 28 Nordeste 0 -- -- 50
2019-04-12 09:00:00 14.6 9 Nordeste 15 Nordeste 0 -- -- 53
2019-04-12 08:00:00 12.3 0 Calma 5 Norte 0 -- -- 64
2019-04-12 07:00:00 12.1 4 Nordeste 10 Noroeste 0 -- -- 68
2019-04-12 06:00:00 11.9 0 Calma 6 Sudoeste 0 -- -- 71
2019-04-12 05:00:00 12.1 2 Sudoeste 8 Sudoeste 0 -- -- 70
2019-04-12 04:00:00 11.8 0 Calma 10 Sudoeste 0 -- -- 70
2019-04-12 03:00:00 12.3 8 Sudoeste 16 Sudoeste 0 -- -- 67
2019-04-12 02:00:00 12.4 9 Sudoeste 15 Sudoeste 0 -- -- 57
2019-04-12 01:00:00 13.2 7 Sudoeste 17 Sudoeste 0 -- -- 52
2019-04-12 00:00:00 13.4 9 Sudoeste 21 Sudoeste 0 -- -- 57
2019-04-11 23:00:00 13 4 Sur 9 Sudoeste 0 -- -- 56
2019-04-11 22:00:00 13.6 3 Sur 11 Sudoeste 0 -- -- 58
2019-04-11 21:00:00 15.2 4 Sudoeste 15 Sudoeste 0 -- -- 49
2019-04-11 20:00:00 16.5 3 Sudoeste 24 Noroeste 0 -- -- 27
2019-04-11 19:00:00 17.8 14 Oeste 26 Oeste 0 -- -- 22
2019-04-11 18:00:00 18.8 16 Oeste 28 Noroeste 0 -- -- 20
2019-04-11 17:00:00 18.4 10 Nordeste 21 Norte 0 -- -- 35
2019-04-11 16:00:00 18.1 14 Nordeste 26 Nordeste 0 -- -- 42
2019-04-11 15:00:00 19.6 15 Oeste 26 Oeste 0 -- -- 21
2019-04-11 14:00:00 19.2 16 Sudoeste 32 Sudoeste 0 -- -- 30
2019-04-11 13:00:00 18.9 15 Sudoeste 26 Sur 0 -- -- 37
2019-04-11 12:00:00 18.2 9 Sur 18 Este 0 -- -- 34
2019-04-11 11:00:00 16.9 4 Sudoeste 11 Este 0 -- -- 39
2019-04-11 10:00:00 14.8 4 Sudoeste 9 Sudeste 0 -- -- 52
2019-04-11 09:00:00 12.2 4 Sur 8 Sur 0 -- -- 66
2019-04-11 08:00:00 10.2 0 Calma 5 Noroeste 0 -- -- 72
2019-04-11 07:00:00 10.5 3 Sudeste 5 Sur 0 -- -- 65
2019-04-11 06:00:00 10.7 3 Noroeste 10 Sudoeste 0 -- -- 63
2019-04-11 05:00:00 9.9 0 Calma 10 Sudoeste 0 -- -- 70
2019-04-11 04:00:00 9.5 2 Sur 8 Sudoeste 0 -- -- 70
2019-04-11 03:00:00 10.4 4 Sudoeste 9 Noroeste 0 -- -- 66
2019-04-11 02:00:00 11.4 5 Sudoeste 9 Sur 0 -- -- 63
2019-04-11 01:00:00 11.2 0 Calma 4 Sur 0 -- -- 72
2019-04-11 00:00:00 11.1 0 Calma 4 Sur 0 -- -- 73
2019-04-10 23:00:00 11.2 2 Sudoeste 7 Sudoeste 0 -- -- 72
2019-04-10 22:00:00 11.2 3 Sur 6 Sudoeste 0 -- -- 70
2019-04-10 21:00:00 12.8 0 Calma 10 Sudoeste 0 -- -- 65
2019-04-10 20:00:00 14.2 6 Sur 17 Sudeste 0 -- -- 58
2019-04-10 19:00:00 15.5 11 Sudeste 25 Sudeste 0 -- -- 51
2019-04-10 18:00:00 15.7 15 Este 25 Este 0 -- -- 48
2019-04-10 17:00:00 18.3 10 Noroeste 23 Oeste 0 -- -- 35
2019-04-10 16:00:00 17.4 14 Noroeste 23 Noroeste 0 -- -- 38
2019-04-10 15:00:00 17.1 11 Noroeste 24 Noroeste 0 -- -- 42
2019-04-10 14:00:00 15.7 13 Noroeste 27 Oeste 0 -- -- 45
2019-04-10 13:00:00 16.6 15 Oeste 32 Oeste 0 -- -- 48
2019-04-10 12:00:00 15.9 18 Oeste 30 Oeste 0.2 -- -- 47
2019-04-10 11:00:00 13.1 8 Oeste 15 Sudoeste 0 -- -- 70
2019-04-10 10:00:00 11 8 Sudoeste 13 Sudoeste 0 -- -- 83
2019-04-10 09:00:00 9.5 7 Noroeste 21 Oeste 1 -- -- 84
2019-04-10 08:00:00 10.1 13 Sudoeste 26 Oeste 1.6 -- -- 81
2019-04-10 07:00:00 11.1 17 Oeste 31 Oeste 0.6 -- -- 74
2019-04-10 06:00:00 12.6 4 Norte 13 Sudoeste 0 -- -- 67
2019-04-10 05:00:00 12.6 8 Sudoeste 21 Sudoeste 0 -- -- 67
2019-04-10 04:00:00 12.8 5 Sudoeste 18 Sudoeste 0 -- -- 66
2019-04-10 03:00:00 12.9 8 Sudoeste 25 Sudoeste 0 -- -- 63
2019-04-10 02:00:00 12.9 11 Sudoeste 30 Sudoeste 0 -- -- 65
2019-04-10 01:00:00 13.5 17 Sudoeste 34 Sudoeste 0 -- -- 62
2019-04-10 00:00:00 13.6 18 Sudoeste 34 Sudoeste 0 -- -- 60
2019-04-09 23:00:00 13.4 14 Sudoeste 34 Sudoeste 0 -- -- 65
2019-04-09 22:00:00 13.4 7 Sudoeste 21 Sudoeste 0 -- -- 62
2019-04-09 21:00:00 14 11 Sudoeste 24 Sudoeste 0 -- -- 49
2019-04-09 20:00:00 15.7 12 Sudoeste 29 Sudoeste 0 -- -- 40
2019-04-09 19:00:00 17.3 18 Sudoeste 29 Sudoeste 0 -- -- 37
2019-04-09 18:00:00 18.1 17 Oeste 32 Oeste 0 -- -- 33
2019-04-09 17:00:00 18.3 14 Oeste 32 Oeste 0 -- -- 35
2019-04-09 16:00:00 18.7 15 Oeste 32 Oeste 0 -- -- 36
2019-04-09 15:00:00 17.9 15 Noroeste 29 Oeste 0 -- -- 40
2019-04-09 14:00:00 17.3 13 Noroeste 35 Oeste 0 -- -- 42
2019-04-09 13:00:00 18.4 16 Noroeste 36 Oeste 0 -- -- 42
2019-04-09 12:00:00 18.4 15 Oeste 32 Noroeste 0 -- -- 40
2019-04-09 11:00:00 16.9 9 Noroeste 26 Sudoeste 0 -- -- 47
2019-04-09 10:00:00 16.3 17 Sudoeste 36 Sudoeste 0 -- -- 63
2019-04-09 09:00:00 14.8 18 Sudoeste 28 Sudoeste 0 -- -- 72
2019-04-09 08:00:00 13.3 13 Sudoeste 24 Sudoeste 0 -- -- 86
2019-04-09 07:00:00 13 10 Sudoeste 19 Sudoeste 0 -- -- 88
2019-04-09 06:00:00 12 4 Sur 9 Sudoeste 0 -- -- 90
2019-04-09 05:00:00 12.5 5 Sur 10 Sur 0 -- -- 90
2019-04-09 04:00:00 12.8 0 Calma 8 Sur 0 -- -- 89
2019-04-09 03:00:00 12.8 5 Sur 9 Sur 0 -- -- 86
2019-04-09 02:00:00 13.3 3 Sur 9 Sur 0 -- -- 83
2019-04-09 01:00:00 13.4 6 Sudoeste 16 Sudoeste 0 -- -- 83
2019-04-09 00:00:00 13.7 9 Sudoeste 17 Sudoeste 0 -- -- 81
2019-04-08 23:00:00 13.7 7 Sudoeste 17 Sudoeste 0 -- -- 80
2019-04-08 22:00:00 14 10 Sudoeste 21 Sudoeste 0 -- -- 71
2019-04-08 21:00:00 14.9 14 Sudoeste 23 Sudoeste 0 -- -- 64
2019-04-08 20:00:00 16.5 15 Sudoeste 30 Sudoeste 0 -- -- 55
2019-04-08 19:00:00 18.8 13 Sudoeste 29 Sudoeste 0 -- -- 47
2019-04-08 18:00:00 19.4 13 Sudoeste 29 Sudoeste 0 -- -- 47
2019-04-08 17:00:00 19.4 14 Sudoeste 29 Sur 0 -- -- 45
2019-04-08 16:00:00 18.6 14 Sudoeste 31 Sudoeste 0 -- -- 48
2019-04-08 15:00:00 19.1 18 Oeste 42 Sudoeste 0 -- -- 44
2019-04-08 14:00:00 18.5 18 Sudoeste 35 Oeste 0 -- -- 47
2019-04-08 13:00:00 17.3 16 Sudoeste 32 Oeste 0 -- -- 50
2019-04-08 12:00:00 17.5 14 Sudoeste 31 Sudoeste 0 -- -- 47
2019-04-08 11:00:00 16.5 12 Sudoeste 22 Sudoeste 0 -- -- 53
2019-04-08 10:00:00 14.6 5 Sur 13 Sudeste 0 -- -- 77
2019-04-08 09:00:00 9.8 0 Calma 5 Sur 0 -- -- 91
2019-04-08 08:00:00 6.9 3 Sur 7 Sur 0 -- -- 90
2019-04-08 07:00:00 5.4 0 Calma 4 Sur 0 -- -- 83
2019-04-08 06:00:00 6.6 3 Sur 7 Sur 0 -- -- 78
2019-04-08 05:00:00 7 5 Sur 7 Sur 0 -- -- 78
2019-04-08 04:00:00 8.5 5 Sur 6 Sur 0 -- -- 78
2019-04-08 03:00:00 8.9 3 Sudoeste 13 Sudoeste 0 -- -- 75
2019-04-08 02:00:00 8.5 5 Sur 9 Sur 0 -- -- 72
2019-04-08 01:00:00 8.4 6 Sur 9 Sur 0 -- -- 69
2019-04-08 00:00:00 8.9 4 Sur 9 Sur 0 -- -- 67
2019-04-07 23:00:00 9.8 3 Sudoeste 11 Sudoeste 0 -- -- 65
2019-04-07 22:00:00 10.4 2 Sudoeste 14 Sudoeste 0 -- -- 60
2019-04-07 21:00:00 10.7 4 Oeste 9 Oeste 0 -- -- 57
2019-04-07 20:00:00 12.8 5 Oeste 17 Noroeste 0 -- -- 49
2019-04-07 19:00:00 14.5 14 Norte 24 Noroeste 0 -- -- 42
2019-04-07 18:00:00 15.3 14 Noroeste 37 Oeste 0 -- -- 39
2019-04-07 17:00:00 15.5 18 Oeste 41 Noroeste 0 -- -- 39
2019-04-07 16:00:00 14.4 21 Noroeste 42 Noroeste 0 -- -- 41
2019-04-07 15:00:00 15 17 Noroeste 38 Noroeste 0 -- -- 39
2019-04-07 14:00:00 15 16 Oeste 29 Noroeste 0 -- -- 40
2019-04-07 13:00:00 14.3 19 Noroeste 36 Noroeste 0 -- -- 40
2019-04-07 12:00:00 14.6 20 Oeste 38 Noroeste 0 -- -- 39
2019-04-07 11:00:00 14 18 Oeste 31 Oeste 0 -- -- 43
2019-04-07 10:00:00 11.7 8 Oeste 20 Sudoeste 0 -- -- 65
2019-04-07 09:00:00 9.7 7 Sudoeste 17 Sudoeste 0 -- -- 75
2019-04-07 08:00:00 9.5 8 Sudoeste 28 Sudoeste 0.2 -- -- 72
2019-04-07 07:00:00 9.4 8 Sudoeste 15 Sudoeste 0 -- -- 74
2019-04-07 06:00:00 9.3 7 Sudoeste 13 Sudoeste 0 -- -- 72
2019-04-07 05:00:00 9.7 6 Sudoeste 13 Sudoeste 0 -- -- 73
2019-04-07 04:00:00 9 6 Sudoeste 10 Sudoeste 0 -- -- 79
2019-04-07 03:00:00 8.5 5 Sur 9 Sur 0 -- -- 78
2019-04-07 02:00:00 9.1 4 Sur 8 Sur 0 -- -- 76
2019-04-07 01:00:00 9.5 4 Sudoeste 9 Sudoeste 0 -- -- 74
2019-04-07 00:00:00 9.9 5 Sur 9 Sur 0 -- -- 69
2019-04-06 23:00:00 10.2 6 Sur 12 Sur 0 -- -- 67
2019-04-06 22:00:00 10.9 6 Sur 11 Sur 0 -- -- 64
2019-04-06 21:00:00 12 4 Sur 22 Sudoeste 0 -- -- 57
2019-04-06 20:00:00 13.4 11 Sudoeste 39 Sudoeste 0 -- -- 52
2019-04-06 19:00:00 13.9 15 Sudoeste 40 Sudoeste 0 -- -- 49
2019-04-06 18:00:00 14.7 22 Sudoeste 47 Sudoeste 0 -- -- 41
2019-04-06 17:00:00 15.5 17 Sudoeste 44 Sudoeste 0 -- -- 38
2019-04-06 16:00:00 15.2 21 Sudoeste 42 Sudoeste 0 -- -- 39
2019-04-06 15:00:00 15.5 20 Sudoeste 41 Sudoeste 0 -- -- 43
2019-04-06 14:00:00 15.4 21 Sudoeste 40 Sudoeste 0 -- -- 42
2019-04-06 13:00:00 14.8 24 Sudoeste 40 Sudoeste 0 -- -- 48
2019-04-06 12:00:00 14.7 15 Sudoeste 33 Sudoeste 0 -- -- 51
2019-04-06 11:00:00 12.9 14 Sudoeste 32 Oeste 0 -- -- 52
2019-04-06 10:00:00 12.5 15 Sudoeste 26 Sudoeste 0 -- -- 60
2019-04-06 09:00:00 10.6 13 Oeste 33 Sudoeste 0 -- -- 71
2019-04-06 08:00:00 9.7 16 Sudoeste 29 Sudoeste 0 -- -- 74
2019-04-06 07:00:00 9 10 Sudoeste 27 Sudoeste 0 -- -- 76
2019-04-06 06:00:00 8.5 6 Sudoeste 21 Sudoeste 0 -- -- 85
2019-04-06 05:00:00 8.7 10 Sudoeste 20 Sur 0 -- -- 86
2019-04-06 04:00:00 9.7 5 Sur 31 Sudoeste 2.2 -- -- 86
2019-04-06 03:00:00 11 9 Sur 21 Sur 1.2 -- -- 83
2019-04-06 02:00:00 11.1 4 Sur 14 Sur 0 -- -- 80
2019-04-06 01:00:00 11.1 6 Sur 15 Sudoeste 0 -- -- 79
2019-04-06 00:00:00 12.1 6 Sudoeste 31 Sudoeste 0 -- -- 80
2019-04-05 23:00:00 13.7 14 Sur 27 Sur 0.2 -- -- 73
2019-04-05 22:00:00 13.5 8 Sur 27 Sur 0 -- -- 75
2019-04-05 21:00:00 13.7 10 Sur 24 Sur 0 -- -- 72
2019-04-05 20:00:00 13.9 11 Sur 25 Sudeste 0 -- -- 71
2019-04-05 19:00:00 14.3 9 Sur 29 Sudeste 0.4 -- -- 69
2019-04-05 18:00:00 14.8 10 Sur 29 Sudeste 0 -- -- 71
2019-04-05 17:00:00 15.1 15 Sur 33 Sudeste 0 -- -- 58
2019-04-05 16:00:00 16.1 16 Sur 32 Sur 0 -- -- 51
2019-04-05 15:00:00 16.8 14 Sur 29 Sudoeste 0 -- -- 41
2019-04-05 14:00:00 17.3 16 Sur 31 Sur 0 -- -- 40
2019-04-05 13:00:00 17.3 14 Sur 27 Sudoeste 0 -- -- 32
2019-04-05 12:00:00 16.1 13 Sur 26 Sur 0 -- -- 33
2019-04-05 11:00:00 14.8 9 Sur 23 Sur 0 -- -- 39
2019-04-05 10:00:00 13 6 Sur 13 Sur 0 -- -- 52
2019-04-05 09:00:00 9.4 4 Sudeste 7 Sur 0 -- -- 68
2019-04-05 08:00:00 3.6 2 Sur 5 Sur 0 -- -- 83
2019-04-05 07:00:00 4.7 4 Sur 13 Sur 0 -- -- 82
2019-04-05 06:00:00 4.7 6 Sur 11 Sur 0 -- -- 85
2019-04-05 05:00:00 4.4 2 Sur 12 Sur 0 -- -- 80
2019-04-05 04:00:00 4.4 2 Sudoeste 9 Sudoeste 0 -- -- 80
2019-04-05 03:00:00 4.4 0 Calma 4 Sudoeste 0 -- -- 81
2019-04-05 02:00:00 4.7 0 Calma 4 Sudoeste 0 -- -- 78
2019-04-05 01:00:00 6.1 2 Sudoeste 6 Sudoeste 0 -- -- 74
2019-04-05 00:00:00 6.9 0 Calma 8 Sur 0 -- -- 70
2019-04-04 23:00:00 8.9 4 Sur 9 Sur 0 -- -- 62
2019-04-04 22:00:00 9.8 3 Sudeste 9 Sudeste 0 -- -- 59
2019-04-04 21:00:00 11.1 6 Sudeste 16 Este 0 -- -- 54
2019-04-04 20:00:00 13.1 9 Este 20 Este 0 -- -- 45
2019-04-04 19:00:00 16.8 5 Sur 15 Oeste 0 -- -- 9
2019-04-04 18:00:00 16.6 8 Oeste 22 Oeste 0 -- -- 6
2019-04-04 17:00:00 16.5 12 Oeste 22 Sudoeste 0 -- -- 14
2019-04-04 16:00:00 15.7 11 Oeste 24 Oeste 0 -- -- 18
2019-04-04 15:00:00 14.9 14 Oeste 27 Oeste 0 -- -- 24
2019-04-04 14:00:00 14.1 14 Oeste 35 Oeste 0 -- -- 26
2019-04-04 13:00:00 14 17 Oeste 38 Oeste 0 -- -- 28
2019-04-04 12:00:00 13 16 Noroeste 31 Oeste 0 -- -- 27
2019-04-04 11:00:00 12.3 8 Oeste 18 Oeste 0 -- -- 50
2019-04-04 10:00:00 11.1 9 Noroeste 15 Noroeste 0 -- -- 60
2019-04-04 09:00:00 9.6 3 Sur 8 Sur 0 -- -- 75
2019-04-04 08:00:00 8.9 5 Sur 8 Sur 0 -- -- 76
2019-04-04 07:00:00 9.3 0 Calma 8 Nordeste 0 -- -- 71
2019-04-04 06:00:00 9.5 5 Nordeste 14 Nordeste 0 -- -- 69
2019-04-04 05:00:00 9.7 8 Nordeste 15 Nordeste 0 -- -- 74
2019-04-04 04:00:00 9.9 9 Nordeste 23 Norte 0 -- -- 78
2019-04-04 03:00:00 10 12 Norte 27 Norte 0 -- -- 82
2019-04-04 02:00:00 10 17 Norte 34 Norte 1.2 -- -- 85
2019-04-04 01:00:00 10.9 19 Norte 34 Norte 0.2 -- -- 79
2019-04-04 00:00:00 12.5 12 Norte 24 Norte 0 -- -- 70
2019-04-03 23:00:00 13.4 7 Oeste 18 Norte 0 -- -- 85
2019-04-03 22:00:00 13.7 6 Oeste 14 Oeste 0 -- -- 81
2019-04-03 21:00:00 14.2 4 Sudoeste 13 Sur 0 -- -- 76
2019-04-03 20:00:00 15.9 6 Sur 19 Sur 0 -- -- 67
2019-04-03 19:00:00 17.8 8 Sur 22 Sudoeste 0 -- -- 60
2019-04-03 18:00:00 18.5 15 Sudoeste 30 Sudoeste 0 -- -- 57
2019-04-03 17:00:00 19.1 14 Sudoeste 31 Sudoeste 0 -- -- 56
2019-04-03 16:00:00 18.8 12 Sudoeste 29 Sur 0 -- -- 56
2019-04-03 15:00:00 18.8 12 Sur 28 Sur 0 -- -- 56
2019-04-03 14:00:00 19.3 13 Sur 27 Sudoeste 0 -- -- 54
2019-04-03 13:00:00 18.2 13 Sudoeste 27 Sudoeste 0 -- -- 58
2019-04-03 12:00:00 17.4 12 Sudoeste 26 Sudoeste 0 -- -- 61
2019-04-03 11:00:00 16.2 12 Sur 21 Sur 0 -- -- 69
2019-04-03 10:00:00 14.7 8 Sur 22 Sudoeste 0 -- -- 74
2019-04-03 09:00:00 13.8 6 Sur 17 Sur 0 -- -- 87
2019-04-03 08:00:00 12.8 5 Sur 8 Sur 0 -- -- 91
2019-04-03 07:00:00 12.6 4 Sur 8 Sur 0 -- -- 89
2019-04-03 06:00:00 12.6 4 Sur 12 Sur 0 -- -- 87
2019-04-03 05:00:00 12.4 5 Sur 10 Sur 0 -- -- 89
2019-04-03 04:00:00 12.7 4 Sur 10 Sudeste 0 -- -- 87
2019-04-03 03:00:00 12.7 6 Sur 10 Sur 0 -- -- 89
2019-04-03 02:00:00 11.9 0 Calma 6 Sur 0 -- -- 87
2019-04-03 01:00:00 13 6 Sur 12 Sur 0 -- -- 84
2019-04-03 00:00:00 13.1 2 Sudeste 9 Sudoeste 0 -- -- 84
2019-04-02 23:00:00 12.3 5 Sur 10 Sur 0 -- -- 81
2019-04-02 22:00:00 12.6 5 Sudoeste 10 Sudoeste 0 -- -- 78
2019-04-02 21:00:00 13.8 4 Sudoeste 13 Sudoeste 0 -- -- 73
2019-04-02 20:00:00 15.4 8 Sudoeste 19 Sudoeste 0 -- -- 67
2019-04-02 19:00:00 17.8 12 Sudoeste 24 Sudoeste 0 -- -- 56
2019-04-02 18:00:00 19 10 Sudoeste 28 Sudoeste 0 -- -- 48
2019-04-02 17:00:00 19.4 13 Sudoeste 27 Sudoeste 0 -- -- 45
2019-04-02 16:00:00 19.1 15 Sudoeste 27 Oeste 0 -- -- 47
2019-04-02 15:00:00 19 14 Sudoeste 27 Sudoeste 0 -- -- 42
2019-04-02 14:00:00 18.4 14 Sudoeste 27 Sudoeste 0 -- -- 46
2019-04-02 13:00:00 17.5 15 Sudoeste 30 Sudoeste 0 -- -- 51
2019-04-02 12:00:00 16.3 18 Sudoeste 29 Sudoeste 0 -- -- 57
2019-04-02 11:00:00 15.6 12 Sudoeste 21 Oeste 0 -- -- 64
2019-04-02 10:00:00 14.8 6 Sur 12 Sudeste 0 -- -- 77
2019-04-02 09:00:00 9.7 0 Calma 3 Este 0 -- -- 96
2019-04-02 08:00:00 5.7 0 Calma 5 Sur 0 -- -- 91
2019-04-02 07:00:00 6 0 Calma 0 Calma 0 -- -- 88
2019-04-02 06:00:00 6.6 0 Calma 2 Oeste 0 -- -- 88
2019-04-02 05:00:00 7.2 0 Calma 0 Calma 0 -- -- 88
2019-04-02 04:00:00 7.3 0 Calma 5 Sur 0 -- -- 85
2019-04-02 03:00:00 7.8 0 Calma 5 Sur 0 -- -- 83
2019-04-02 02:00:00 8.7 0 Calma 7 Sur 0 -- -- 81
2019-04-02 01:00:00 9.2 3 Sur 5 Sur 0 -- -- 80
2019-04-02 00:00:00 9.5 0 Calma 5 Sur 0 -- -- 77
2019-04-01 23:00:00 9.9 0 Calma 4 Sur 0 -- -- 77
2019-04-01 22:00:00 10.9 4 Sudoeste 8 Sudoeste 0 -- -- 72
2019-04-01 21:00:00 12.7 0 Calma 5 Norte 0 -- -- 64
2019-04-01 20:00:00 14 3 Nordeste 12 Nordeste 0 -- -- 57
2019-04-01 19:00:00 15.4 8 Nordeste 17 Norte 0 -- -- 51
2019-04-01 18:00:00 16.2 10 Nordeste 17 Nordeste 0 -- -- 42
2019-04-01 17:00:00 17.8 9 Nordeste 19 Nordeste 0 -- -- 40
2019-04-01 16:00:00 17.7 10 Nordeste 22 Norte 0 -- -- 37
2019-04-01 15:00:00 16.6 12 Norte 19 Nordeste 0 -- -- 47
2019-04-01 14:00:00 15.5 12 Nordeste 19 Nordeste 0 -- -- 60
2019-04-01 13:00:00 14.9 12 Nordeste 19 Norte 0 -- -- 67
2019-04-01 12:00:00 14.1 12 Nordeste 18 Nordeste 0 -- -- 73
2019-04-01 11:00:00 13.5 11 Nordeste 15 Nordeste 0 -- -- 74
2019-04-01 10:00:00 12.6 8 Norte 12 Norte 0 -- -- 95
2019-04-01 09:00:00 11.5 6 Norte 10 Norte 0 -- -- 97
2019-04-01 08:00:00 11.2 0 Calma 4 Norte 0 -- -- 97
2019-04-01 07:00:00 11.4 0 Calma 4 Norte 0 -- -- 97
2019-04-01 06:00:00 11.6 0 Calma 5 Norte 0 -- -- 97
2019-04-01 05:00:00 11.8 0 Calma 6 Norte 0 -- -- 98
2019-04-01 04:00:00 11.8 0 Calma 6 Norte 0 -- -- 98
2019-04-01 03:00:00 12.1 0 Calma 11 Norte 0 -- -- 97
2019-04-01 02:00:00 11.9 5 Norte 10 Norte 0 -- -- 95
2019-04-01 01:00:00 12.1 5 Nordeste 12 Norte 0 -- -- 95
2019-04-01 00:00:00 12.7 4 Nordeste 12 Este 0.2 -- -- 96
2019-03-31 23:00:00 12.9 7 Nordeste 21 Norte 0.2 -- -- 96
2019-03-31 22:00:00 12.9 12 Norte 18 Norte 0.8 -- -- 94
2019-03-31 21:00:00 13.2 9 Nordeste 15 Norte 0 -- -- 90
2019-03-31 20:00:00 13.7 8 Nordeste 18 Este 0.4 -- -- 86
2019-03-31 19:00:00 14.2 7 Este 17 Nordeste 0 -- -- 83
2019-03-31 18:00:00 15 10 Este 19 Este 0 -- -- 76
2019-03-31 17:00:00 15.5 11 Este 22 Este 0 -- -- 73
2019-03-31 16:00:00 15.4 13 Este 26 Este 0 -- -- 72
2019-03-31 15:00:00 15.6 17 Este 28 Este 0 -- -- 69
2019-03-31 14:00:00 16.3 15 Este 28 Este 0 -- -- 66
2019-03-31 13:00:00 16.7 17 Este 28 Este 0 -- -- 63
2019-03-31 12:00:00 16.3 12 Este 22 Nordeste 0 -- -- 62
2019-03-31 11:00:00 16.1 9 Nordeste 17 Nordeste 0 -- -- 71
2019-03-31 10:00:00 14.1 9 Norte 14 Nordeste 0 -- -- 89
2019-03-31 09:00:00 11.7 0 Calma 3 Norte 0 -- -- 98
2019-03-31 08:00:00 10.7 0 Calma 2 Nordeste 0 -- -- 94
2019-03-31 07:00:00 10.5 0 Calma 2 Norte 0 -- -- 90
2019-03-31 06:00:00 10.4 0 Calma 4 Norte 0 -- -- 85
2019-03-31 05:00:00 10.7 0 Calma 4 Nordeste 0 -- -- 84
2019-03-31 03:00:00 11.3 0 Calma 2 Norte 0 -- -- 81
2019-03-31 01:00:00 11.8 0 Calma 6 Nordeste 0 -- -- 79
2019-03-31 00:00:00 12.1 4 Nordeste 10 Nordeste 0 -- -- 80
2019-03-30 23:00:00 12 6 Norte 9 Norte 0 -- -- 81
2019-03-30 22:00:00 12.2 3 Nordeste 10 Nordeste 0 -- -- 77
2019-03-30 21:00:00 13.6 6 Nordeste 14 Nordeste 0 -- -- 73
2019-03-30 20:00:00 14.1 8 Nordeste 18 Nordeste 0 -- -- 69
2019-03-30 19:00:00 14.5 10 Nordeste 21 Este 0 -- -- 66
2019-03-30 18:00:00 15.8 11 Este 21 Nordeste 0 -- -- 58
2019-03-30 17:00:00 15.8 13 Nordeste 25 Este 0 -- -- 56
2019-03-30 16:00:00 16.7 12 Este 25 Este 0 -- -- 54
2019-03-30 15:00:00 16.9 17 Sudeste 28 Este 0 -- -- 53
2019-03-30 14:00:00 17.7 10 Sudeste 21 Sudeste 0 -- -- 47
2019-03-30 13:00:00 17.6 10 Este 23 Este 0 -- -- 46
2019-03-30 12:00:00 16.8 7 Este 24 Este 0 -- -- 47
2019-03-30 11:00:00 15.9 10 Este 20 Nordeste 0 -- -- 52
2019-03-30 10:00:00 14.8 9 Nordeste 19 Nordeste 0 -- -- 56
2019-03-30 09:00:00 13.5 8 Norte 12 Norte 0 -- -- 62
2019-03-30 08:00:00 9.9 0 Calma -- -- 0 -- -- 78
2019-03-30 07:00:00 7.5 0 Calma 4 Sudoeste 0 -- -- 80
2019-03-30 06:00:00 8.9 0 Calma 8 Este 0 -- -- 77
2019-03-30 05:00:00 9.2 0 Calma 3 Sudoeste 0 -- -- 80
2019-03-30 04:00:00 9.3 0 Calma 6 Oeste 0 -- -- 80
2019-03-30 03:00:00 7.7 0 Calma -- -- 0 -- -- 82
2019-03-30 02:00:00 7.1 0 Calma 2 Sur 0 -- -- 82
2019-03-30 01:00:00 7.3 0 Calma 2 Sudoeste 0 -- -- 80
2019-03-30 00:00:00 7.8 0 Calma 0 Calma 0 -- -- 80
2019-03-29 23:00:00 7.3 0 Calma 4 Sudoeste 0 -- -- 79
2019-03-29 22:00:00 8.5 0 Calma 4 Este 0 -- -- 74
2019-03-29 21:00:00 9.9 0 Calma 6 Nordeste 0 -- -- 71
2019-03-29 20:00:00 10.9 3 Nordeste 14 Nordeste 0 -- -- 67
2019-03-29 19:00:00 12.6 9 Nordeste 22 Nordeste 0 -- -- 59
2019-03-29 18:00:00 14.4 17 Nordeste 27 Este 0 -- -- 52
2019-03-29 17:00:00 15.5 17 Nordeste 25 Nordeste 0 -- -- 43
2019-03-29 16:00:00 16.3 14 Nordeste 24 Nordeste 0 -- -- 42
2019-03-29 15:00:00 16.6 15 Nordeste 25 Nordeste 0 -- -- 40
2019-03-29 14:00:00 17 10 Nordeste 24 Nordeste 0 -- -- 37
2019-03-29 13:00:00 16.5 13 Nordeste 27 Norte 0 -- -- 38
2019-03-29 12:00:00 15.8 14 Nordeste 28 Nordeste 0 -- -- 40
2019-03-29 11:00:00 15.3 17 Nordeste 30 Norte 0 -- -- 43
2019-03-29 10:00:00 14.2 14 Nordeste 22 Nordeste 0 -- -- 58
2019-03-29 09:00:00 12.8 7 Norte 14 Nordeste 0 -- -- 67
2019-03-29 08:00:00 6.4 0 Calma 2 Sudoeste 0 -- -- 85
2019-03-29 07:00:00 2.2 0 Calma 0 Calma 0 -- -- 84
2019-03-29 06:00:00 2.3 0 Calma 0 Calma 0 -- -- 83
2019-03-29 05:00:00 2.7 0 Calma 0 Calma 0 -- -- 83
2019-03-29 04:00:00 3.4 0 Calma 3 Sudoeste 0 -- -- 82
2019-03-29 03:00:00 3.7 0 Calma 2 Sur 0 -- -- 82
2019-03-29 02:00:00 4.4 0 Calma 2 Sudoeste 0 -- -- 82
2019-03-29 01:00:00 4.7 0 Calma 2 Sudeste 0 -- -- 80
2019-03-29 00:00:00 5.3 0 Calma 0 Calma 0 -- -- 77
2019-03-28 23:00:00 6.4 0 Calma 3 Sudoeste 0 -- -- 75
2019-03-28 22:00:00 7.5 0 Calma 4 Sudoeste 0 -- -- 72
2019-03-28 21:00:00 8.9 2 Sudoeste 3 Sudoeste 0 -- -- 68
2019-03-28 20:00:00 10.8 0 Calma 7 Norte 0 -- -- 60
2019-03-28 19:00:00 12.7 7 Norte 17 Norte 0 -- -- 55
2019-03-28 18:00:00 14.8 12 Nordeste 22 Nordeste 0 -- -- 47
2019-03-28 17:00:00 15.4 18 Nordeste 29 Nordeste 0 -- -- 37
2019-03-28 16:00:00 16.1 16 Nordeste 28 Nordeste 0 -- -- 34
2019-03-28 15:00:00 16.2 18 Nordeste 31 Nordeste 0 -- -- 37
2019-03-28 14:00:00 16.2 19 Nordeste 30 Nordeste 0 -- -- 39
2019-03-28 13:00:00 16.2 18 Nordeste 35 Nordeste 0 -- -- 43
2019-03-28 12:00:00 15.6 21 Nordeste 31 Norte 0 -- -- 42
2019-03-28 11:00:00 15.2 21 Nordeste 32 Nordeste 0 -- -- 42
2019-03-28 10:00:00 14.7 14 Nordeste 26 Norte 0 -- -- 48
2019-03-28 09:00:00 13.1 12 Norte 22 Norte 0 -- -- 60
2019-03-28 08:00:00 10.6 6 Norte 12 Norte 0 -- -- 72
2019-03-28 07:00:00 7.7 3 Norte 9 Norte 0 -- -- 78
2019-03-28 06:00:00 8 4 Norte 10 Norte 0 -- -- 75
2019-03-28 05:00:00 8.6 6 Norte 12 Noroeste 0 -- -- 71
2019-03-28 04:00:00 7.5 4 Norte 13 Nordeste 0 -- -- 68
2019-03-28 03:00:00 6.4 5 Nordeste 9 Nordeste 0 -- -- 76
2019-03-28 02:00:00 6.3 2 Norte 5 Nordeste 0 -- -- 75
2019-03-28 01:00:00 4.9 0 Calma 2 Sudeste 0 -- -- 78
2019-03-28 00:00:00 5.3 0 Calma 4 Sudoeste 0 -- -- 74
2019-03-27 23:00:00 6.3 0 Calma 4 Sudoeste 0 -- -- 74
2019-03-27 22:00:00 7.6 2 Oeste 3 Sudoeste 0 -- -- 71
2019-03-27 21:00:00 9.2 0 Calma 10 Norte 0 -- -- 66
2019-03-27 20:00:00 10 9 Norte 17 Norte 0 -- -- 66
2019-03-27 19:00:00 11.7 8 Norte 22 Norte 0 -- -- 57
2019-03-27 18:00:00 13.8 15 Nordeste 25 Nordeste 0 -- -- 47
2019-03-27 17:00:00 14.7 17 Norte 34 Norte 0 -- -- 41
2019-03-27 16:00:00 15.1 19 Norte 32 Norte 0 -- -- 39
2019-03-27 15:00:00 15.1 20 Nordeste 36 Nordeste 0 -- -- 43
2019-03-27 14:00:00 15.2 22 Norte 36 Norte 0 -- -- 44
2019-03-27 13:00:00 15.3 24 Nordeste 38 Nordeste 0 -- -- 40
2019-03-27 12:00:00 15.4 23 Nordeste 35 Nordeste 0 -- -- 43
2019-03-27 11:00:00 14.8 20 Norte 39 Norte 0 -- -- 51
2019-03-27 10:00:00 13.9 19 Norte 31 Nordeste 0 -- -- 51
2019-03-27 09:00:00 13.2 18 Norte 30 Norte 0 -- -- 56
2019-03-27 08:00:00 11.1 10 Norte 17 Nordeste 0 -- -- 64
2019-03-27 07:00:00 9.6 7 Norte 17 Norte 0 -- -- 62
2019-03-27 06:00:00 9.6 9 Norte 19 Norte 0 -- -- 60
2019-03-27 05:00:00 8.5 9 Norte 16 Nordeste 0 -- -- 69
2019-03-27 04:00:00 6 0 Calma 13 Norte 0 -- -- 75
2019-03-27 03:00:00 5 0 Calma 3 Este 0 -- -- 79
2019-03-27 02:00:00 4.2 0 Calma 2 Oeste 0 -- -- 77
2019-03-27 01:00:00 3.8 0 Calma 3 Sudoeste 0 -- -- 74
2019-03-27 00:00:00 3.8 0 Calma 3 Sudeste 0 -- -- 74